sensor_id;sensor_type;location;lat;lon;timestamp;P1;durP1;ratioP1;P2;durP2;ratioP2
71366;SDS011;60030;52.274;8.040;2023-05-07T00:00:56;19.87;;;14.03;;
71366;SDS011;60030;52.274;8.040;2023-05-07T00:03:24;20.40;;;14.07;;
71366;SDS011;60030;52.274;8.040;2023-05-07T00:05:52;19.97;;;14.17;;
71366;SDS011;60030;52.274;8.040;2023-05-07T00:08:19;17.53;;;13.37;;
71366;SDS011;60030;52.274;8.040;2023-05-07T00:10:48;16.87;;;12.67;;
71366;SDS011;60030;52.274;8.040;2023-05-07T00:13:16;21.43;;;14.53;;
71366;SDS011;60030;52.274;8.040;2023-05-07T00:15:43;20.67;;;14.10;;
71366;SDS011;60030;52.274;8.040;2023-05-07T00:18:10;18.30;;;14.53;;
71366;SDS011;60030;52.274;8.040;2023-05-07T00:20:39;19.77;;;14.37;;
71366;SDS011;60030;52.274;8.040;2023-05-07T00:23:06;21.30;;;14.67;;
71366;SDS011;60030;52.274;8.040;2023-05-07T00:25:33;17.40;;;14.23;;
71366;SDS011;60030;52.274;8.040;2023-05-07T00:28:02;20.73;;;14.00;;
71366;SDS011;60030;52.274;8.040;2023-05-07T00:30:30;18.63;;;14.13;;
71366;SDS011;60030;52.274;8.040;2023-05-07T00:32:59;19.63;;;14.00;;
71366;SDS011;60030;52.274;8.040;2023-05-07T00:35:27;19.70;;;14.60;;
71366;SDS011;60030;52.274;8.040;2023-05-07T00:37:55;22.67;;;14.77;;
71366;SDS011;60030;52.274;8.040;2023-05-07T00:40:23;22.27;;;14.50;;
71366;SDS011;60030;52.274;8.040;2023-05-07T00:42:50;23.57;;;15.87;;
71366;SDS011;60030;52.274;8.040;2023-05-07T00:45:24;23.30;;;14.87;;
71366;SDS011;60030;52.274;8.040;2023-05-07T00:47:54;21.77;;;15.13;;
71366;SDS011;60030;52.274;8.040;2023-05-07T00:50:21;22.67;;;15.07;;
71366;SDS011;60030;52.274;8.040;2023-05-07T00:52:49;23.13;;;15.00;;
71366;SDS011;60030;52.274;8.040;2023-05-07T00:55:17;24.10;;;16.53;;
71366;SDS011;60030;52.274;8.040;2023-05-07T00:57:44;22.93;;;15.63;;
71366;SDS011;60030;52.274;8.040;2023-05-07T01:00:12;25.77;;;16.93;;
71366;SDS011;60030;52.274;8.040;2023-05-07T01:02:41;22.03;;;16.30;;
71366;SDS011;60030;52.274;8.040;2023-05-07T01:05:09;22.30;;;16.07;;
71366;SDS011;60030;52.274;8.040;2023-05-07T01:07:40;25.07;;;16.20;;
71366;SDS011;60030;52.274;8.040;2023-05-07T01:10:08;24.80;;;16.37;;
71366;SDS011;60030;52.274;8.040;2023-05-07T01:12:37;24.13;;;16.63;;
71366;SDS011;60030;52.274;8.040;2023-05-07T01:15:06;26.90;;;16.90;;
71366;SDS011;60030;52.274;8.040;2023-05-07T01:17:36;22.73;;;16.63;;
71366;SDS011;60030;52.274;8.040;2023-05-07T01:20:08;25.53;;;16.63;;
71366;SDS011;60030;52.274;8.040;2023-05-07T01:22:38;23.30;;;16.83;;
71366;SDS011;60030;52.274;8.040;2023-05-07T01:25:07;25.80;;;15.90;;
71366;SDS011;60030;52.274;8.040;2023-05-07T01:27:39;28.83;;;17.57;;
71366;SDS011;60030;52.274;8.040;2023-05-07T01:30:07;24.47;;;16.47;;
71366;SDS011;60030;52.274;8.040;2023-05-07T01:32:36;27.87;;;18.43;;
71366;SDS011;60030;52.274;8.040;2023-05-07T01:35:07;26.07;;;17.70;;
71366;SDS011;60030;52.274;8.040;2023-05-07T01:37:39;28.10;;;18.07;;
71366;SDS011;60030;52.274;8.040;2023-05-07T01:40:07;26.90;;;17.17;;
71366;SDS011;60030;52.274;8.040;2023-05-07T01:42:35;30.40;;;18.20;;
71366;SDS011;60030;52.274;8.040;2023-05-07T01:45:07;27.50;;;18.03;;
71366;SDS011;60030;52.274;8.040;2023-05-07T01:47:35;26.83;;;18.07;;
71366;SDS011;60030;52.274;8.040;2023-05-07T01:50:03;29.40;;;18.67;;
71366;SDS011;60030;52.274;8.040;2023-05-07T01:52:33;26.23;;;16.90;;
71366;SDS011;60030;52.274;8.040;2023-05-07T01:55:03;28.80;;;18.40;;
71366;SDS011;60030;52.274;8.040;2023-05-07T01:57:31;31.00;;;19.33;;
71366;SDS011;60030;52.274;8.040;2023-05-07T01:59:59;28.57;;;20.20;;
71366;SDS011;60030;52.274;8.040;2023-05-07T02:02:28;29.07;;;18.63;;
71366;SDS011;60030;52.274;8.040;2023-05-07T02:04:58;28.93;;;20.03;;
71366;SDS011;60030;52.274;8.040;2023-05-07T02:07:26;30.53;;;19.90;;
71366;SDS011;60030;52.274;8.040;2023-05-07T02:09:53;34.00;;;21.17;;
71366;SDS011;60030;52.274;8.040;2023-05-07T02:12:22;30.47;;;20.00;;
71366;SDS011;60030;52.274;8.040;2023-05-07T02:14:50;32.87;;;20.33;;
71366;SDS011;60030;52.274;8.040;2023-05-07T02:17:18;29.37;;;20.37;;
71366;SDS011;60030;52.274;8.040;2023-05-07T02:19:46;30.53;;;20.10;;
71366;SDS011;60030;52.274;8.040;2023-05-07T02:22:13;30.70;;;20.20;;
71366;SDS011;60030;52.274;8.040;2023-05-07T02:24:40;31.97;;;22.00;;
71366;SDS011;60030;52.274;8.040;2023-05-07T02:27:08;34.10;;;20.83;;
71366;SDS011;60030;52.274;8.040;2023-05-07T02:29:37;30.40;;;20.27;;
71366;SDS011;60030;52.274;8.040;2023-05-07T02:32:04;30.50;;;20.20;;
71366;SDS011;60030;52.274;8.040;2023-05-07T02:34:32;34.90;;;21.80;;
71366;SDS011;60030;52.274;8.040;2023-05-07T02:36:59;31.50;;;20.90;;
71366;SDS011;60030;52.274;8.040;2023-05-07T02:39:27;30.53;;;21.23;;
71366;SDS011;60030;52.274;8.040;2023-05-07T02:41:54;30.53;;;21.10;;
71366;SDS011;60030;52.274;8.040;2023-05-07T02:44:21;28.60;;;19.90;;
71366;SDS011;60030;52.274;8.040;2023-05-07T02:46:52;30.93;;;20.77;;
71366;SDS011;60030;52.274;8.040;2023-05-07T02:49:19;30.93;;;21.27;;
71366;SDS011;60030;52.274;8.040;2023-05-07T02:51:47;31.67;;;20.53;;
71366;SDS011;60030;52.274;8.040;2023-05-07T02:54:19;32.20;;;21.47;;
71366;SDS011;60030;52.274;8.040;2023-05-07T02:56:47;31.73;;;20.80;;
71366;SDS011;60030;52.274;8.040;2023-05-07T02:59:14;32.30;;;20.27;;
71366;SDS011;60030;52.274;8.040;2023-05-07T03:01:42;34.53;;;21.93;;
71366;SDS011;60030;52.274;8.040;2023-05-07T03:04:13;33.60;;;20.93;;
71366;SDS011;60030;52.274;8.040;2023-05-07T03:06:40;33.53;;;20.83;;
71366;SDS011;60030;52.274;8.040;2023-05-07T03:09:08;34.67;;;23.17;;
71366;SDS011;60030;52.274;8.040;2023-05-07T03:11:36;35.63;;;23.37;;
71366;SDS011;60030;52.274;8.040;2023-05-07T03:14:03;34.33;;;22.30;;
71366;SDS011;60030;52.274;8.040;2023-05-07T03:16:32;35.47;;;22.10;;
71366;SDS011;60030;52.274;8.040;2023-05-07T03:18:59;38.67;;;24.00;;
71366;SDS011;60030;52.274;8.040;2023-05-07T03:21:30;36.33;;;22.80;;
71366;SDS011;60030;52.274;8.040;2023-05-07T03:23:59;37.17;;;24.27;;
71366;SDS011;60030;52.274;8.040;2023-05-07T03:26:26;38.70;;;24.17;;
71366;SDS011;60030;52.274;8.040;2023-05-07T03:28:54;34.17;;;23.63;;
71366;SDS011;60030;52.274;8.040;2023-05-07T03:31:22;39.90;;;23.93;;
71366;SDS011;60030;52.274;8.040;2023-05-07T03:33:50;35.23;;;22.90;;
71366;SDS011;60030;52.274;8.040;2023-05-07T03:36:18;38.37;;;24.63;;
71366;SDS011;60030;52.274;8.040;2023-05-07T03:38:47;37.70;;;24.40;;
71366;SDS011;60030;52.274;8.040;2023-05-07T03:41:18;34.57;;;24.20;;
71366;SDS011;60030;52.274;8.040;2023-05-07T03:43:46;37.17;;;23.00;;
71366;SDS011;60030;52.274;8.040;2023-05-07T03:46:14;38.90;;;24.87;;
71366;SDS011;60030;52.274;8.040;2023-05-07T03:48:41;38.00;;;25.60;;
71366;SDS011;60030;52.274;8.040;2023-05-07T03:51:10;39.73;;;23.97;;
71366;SDS011;60030;52.274;8.040;2023-05-07T03:53:38;38.50;;;24.13;;
71366;SDS011;60030;52.274;8.040;2023-05-07T03:56:07;36.73;;;23.90;;
71366;SDS011;60030;52.274;8.040;2023-05-07T03:58:37;37.10;;;23.37;;
71366;SDS011;60030;52.274;8.040;2023-05-07T04:01:08;36.67;;;24.03;;
71366;SDS011;60030;52.274;8.040;2023-05-07T04:03:35;38.13;;;24.67;;
71366;SDS011;60030;52.274;8.040;2023-05-07T04:06:03;38.73;;;24.30;;
71366;SDS011;60030;52.274;8.040;2023-05-07T04:08:33;41.47;;;24.67;;
71366;SDS011;60030;52.274;8.040;2023-05-07T04:11:02;35.10;;;23.10;;
71366;SDS011;60030;52.274;8.040;2023-05-07T04:13:36;40.23;;;25.57;;
71366;SDS011;60030;52.274;8.040;2023-05-07T04:16:05;37.97;;;23.73;;
71366;SDS011;60030;52.274;8.040;2023-05-07T04:18:35;41.70;;;24.67;;
71366;SDS011;60030;52.274;8.040;2023-05-07T04:21:03;37.30;;;24.37;;
71366;SDS011;60030;52.274;8.040;2023-05-07T04:23:32;40.20;;;24.17;;
71366;SDS011;60030;52.274;8.040;2023-05-07T04:26:02;34.70;;;22.80;;
71366;SDS011;60030;52.274;8.040;2023-05-07T04:28:38;38.23;;;24.90;;
71366;SDS011;60030;52.274;8.040;2023-05-07T04:31:06;38.20;;;23.93;;
71366;SDS011;60030;52.274;8.040;2023-05-07T04:33:36;39.17;;;24.83;;
71366;SDS011;60030;52.274;8.040;2023-05-07T04:36:05;38.97;;;24.50;;
71366;SDS011;60030;52.274;8.040;2023-05-07T04:38:38;36.27;;;23.93;;
71366;SDS011;60030;52.274;8.040;2023-05-07T04:41:06;38.10;;;23.20;;
71366;SDS011;60030;52.274;8.040;2023-05-07T04:43:40;38.00;;;24.30;;
71366;SDS011;60030;52.274;8.040;2023-05-07T04:46:10;36.07;;;23.90;;
71366;SDS011;60030;52.274;8.040;2023-05-07T04:48:37;35.17;;;23.07;;
71366;SDS011;60030;52.274;8.040;2023-05-07T04:51:05;39.03;;;24.33;;
71366;SDS011;60030;52.274;8.040;2023-05-07T04:53:33;35.87;;;23.83;;
71366;SDS011;60030;52.274;8.040;2023-05-07T04:56:00;34.87;;;22.00;;
71366;SDS011;60030;52.274;8.040;2023-05-07T04:58:39;36.07;;;23.30;;
71366;SDS011;60030;52.274;8.040;2023-05-07T05:01:07;34.77;;;23.33;;
71366;SDS011;60030;52.274;8.040;2023-05-07T05:03:36;35.87;;;22.87;;
71366;SDS011;60030;52.274;8.040;2023-05-07T05:06:05;36.53;;;22.43;;
71366;SDS011;60030;52.274;8.040;2023-05-07T05:08:35;34.87;;;22.97;;
71366;SDS011;60030;52.274;8.040;2023-05-07T05:11:03;32.93;;;22.17;;
71366;SDS011;60030;52.274;8.040;2023-05-07T05:13:33;34.43;;;23.50;;
71366;SDS011;60030;52.274;8.040;2023-05-07T05:16:08;35.80;;;22.07;;
71366;SDS011;60030;52.274;8.040;2023-05-07T05:18:36;31.23;;;21.43;;
71366;SDS011;60030;52.274;8.040;2023-05-07T05:21:04;33.57;;;21.90;;
71366;SDS011;60030;52.274;8.040;2023-05-07T05:23:32;36.17;;;22.37;;
71366;SDS011;60030;52.274;8.040;2023-05-07T05:26:00;34.60;;;21.53;;
71366;SDS011;60030;52.274;8.040;2023-05-07T05:28:30;31.43;;;20.37;;
71366;SDS011;60030;52.274;8.040;2023-05-07T05:30:58;32.77;;;21.30;;
71366;SDS011;60030;52.274;8.040;2023-05-07T05:33:29;33.53;;;21.37;;
71366;SDS011;60030;52.274;8.040;2023-05-07T05:36:02;33.17;;;20.87;;
71366;SDS011;60030;52.274;8.040;2023-05-07T05:38:30;31.33;;;20.20;;
71366;SDS011;60030;52.274;8.040;2023-05-07T05:40:57;32.43;;;20.33;;
71366;SDS011;60030;52.274;8.040;2023-05-07T05:43:25;34.13;;;21.00;;
71366;SDS011;60030;52.274;8.040;2023-05-07T05:45:53;30.27;;;19.87;;
71366;SDS011;60030;52.274;8.040;2023-05-07T05:48:21;29.90;;;19.37;;
71366;SDS011;60030;52.274;8.040;2023-05-07T05:50:50;28.83;;;19.67;;
71366;SDS011;60030;52.274;8.040;2023-05-07T05:53:18;28.57;;;21.20;;
71366;SDS011;60030;52.274;8.040;2023-05-07T05:55:45;31.00;;;20.47;;
71366;SDS011;60030;52.274;8.040;2023-05-07T05:58:13;33.13;;;21.77;;
71366;SDS011;60030;52.274;8.040;2023-05-07T06:00:47;30.33;;;19.70;;
71366;SDS011;60030;52.274;8.040;2023-05-07T06:03:18;28.17;;;19.27;;
71366;SDS011;60030;52.274;8.040;2023-05-07T06:05:46;32.97;;;20.53;;
71366;SDS011;60030;52.274;8.040;2023-05-07T06:08:15;28.00;;;19.67;;
71366;SDS011;60030;52.274;8.040;2023-05-07T06:10:42;30.30;;;18.93;;
71366;SDS011;60030;52.274;8.040;2023-05-07T06:13:10;29.53;;;19.93;;
71366;SDS011;60030;52.274;8.040;2023-05-07T06:15:38;29.70;;;18.90;;
71366;SDS011;60030;52.274;8.040;2023-05-07T06:18:09;27.73;;;18.43;;
71366;SDS011;60030;52.274;8.040;2023-05-07T06:20:36;29.80;;;19.17;;
71366;SDS011;60030;52.274;8.040;2023-05-07T06:23:08;28.10;;;18.13;;
71366;SDS011;60030;52.274;8.040;2023-05-07T06:25:38;27.67;;;18.90;;
71366;SDS011;60030;52.274;8.040;2023-05-07T06:28:06;27.77;;;18.00;;
71366;SDS011;60030;52.274;8.040;2023-05-07T06:30:36;26.97;;;17.80;;
71366;SDS011;60030;52.274;8.040;2023-05-07T06:33:03;28.50;;;18.50;;
71366;SDS011;60030;52.274;8.040;2023-05-07T06:35:31;23.23;;;15.47;;
71366;SDS011;60030;52.274;8.040;2023-05-07T06:37:59;25.30;;;16.33;;
71366;SDS011;60030;52.274;8.040;2023-05-07T06:40:28;28.33;;;17.20;;
71366;SDS011;60030;52.274;8.040;2023-05-07T06:43:00;25.37;;;16.50;;
71366;SDS011;60030;52.274;8.040;2023-05-07T06:45:41;21.63;;;15.50;;
71366;SDS011;60030;52.274;8.040;2023-05-07T06:48:09;24.57;;;16.67;;
71366;SDS011;60030;52.274;8.040;2023-05-07T06:50:47;26.30;;;16.97;;
71366;SDS011;60030;52.274;8.040;2023-05-07T06:53:14;26.17;;;16.03;;
71366;SDS011;60030;52.274;8.040;2023-05-07T06:55:42;24.70;;;17.10;;
71366;SDS011;60030;52.274;8.040;2023-05-07T06:58:13;23.93;;;16.07;;
71366;SDS011;60030;52.274;8.040;2023-05-07T07:00:40;23.87;;;16.53;;
71366;SDS011;60030;52.274;8.040;2023-05-07T07:03:08;26.70;;;17.97;;
71366;SDS011;60030;52.274;8.040;2023-05-07T07:05:35;25.37;;;15.00;;
71366;SDS011;60030;52.274;8.040;2023-05-07T07:08:03;24.73;;;16.40;;
71366;SDS011;60030;52.274;8.040;2023-05-07T07:10:31;22.17;;;15.77;;
71366;SDS011;60030;52.274;8.040;2023-05-07T07:12:59;24.07;;;15.50;;
71366;SDS011;60030;52.274;8.040;2023-05-07T07:15:28;19.63;;;14.03;;
71366;SDS011;60030;52.274;8.040;2023-05-07T07:18:02;24.90;;;15.83;;
71366;SDS011;60030;52.274;8.040;2023-05-07T07:20:29;24.83;;;16.53;;
71366;SDS011;60030;52.274;8.040;2023-05-07T07:22:57;24.20;;;15.33;;
71366;SDS011;60030;52.274;8.040;2023-05-07T07:25:26;23.17;;;14.27;;
71366;SDS011;60030;52.274;8.040;2023-05-07T07:27:53;20.17;;;14.87;;
71366;SDS011;60030;52.274;8.040;2023-05-07T07:30:22;22.07;;;14.33;;
71366;SDS011;60030;52.274;8.040;2023-05-07T07:32:51;19.37;;;14.17;;
71366;SDS011;60030;52.274;8.040;2023-05-07T07:35:19;21.80;;;14.40;;
71366;SDS011;60030;52.274;8.040;2023-05-07T07:37:48;23.13;;;13.87;;
71366;SDS011;60030;52.274;8.040;2023-05-07T07:40:16;22.83;;;14.63;;
71366;SDS011;60030;52.274;8.040;2023-05-07T07:42:44;21.67;;;14.43;;
71366;SDS011;60030;52.274;8.040;2023-05-07T07:45:12;19.83;;;13.33;;
71366;SDS011;60030;52.274;8.040;2023-05-07T07:47:43;21.97;;;13.70;;
71366;SDS011;60030;52.274;8.040;2023-05-07T07:50:12;19.17;;;13.60;;
71366;SDS011;60030;52.274;8.040;2023-05-07T07:52:40;20.83;;;14.40;;
71366;SDS011;60030;52.274;8.040;2023-05-07T07:55:09;20.50;;;14.40;;
71366;SDS011;60030;52.274;8.040;2023-05-07T07:57:38;21.73;;;14.60;;
71366;SDS011;60030;52.274;8.040;2023-05-07T08:00:06;21.30;;;13.60;;
71366;SDS011;60030;52.274;8.040;2023-05-07T08:02:42;20.13;;;14.23;;
71366;SDS011;60030;52.274;8.040;2023-05-07T08:05:16;22.83;;;14.03;;
71366;SDS011;60030;52.274;8.040;2023-05-07T08:07:43;19.43;;;14.07;;
71366;SDS011;60030;52.274;8.040;2023-05-07T08:10:13;19.93;;;13.27;;
71366;SDS011;60030;52.274;8.040;2023-05-07T08:12:47;21.00;;;13.97;;
71366;SDS011;60030;52.274;8.040;2023-05-07T08:15:14;22.03;;;13.73;;
71366;SDS011;60030;52.274;8.040;2023-05-07T08:17:42;18.20;;;13.33;;
71366;SDS011;60030;52.274;8.040;2023-05-07T08:20:10;19.83;;;13.53;;
71366;SDS011;60030;52.274;8.040;2023-05-07T08:22:39;19.73;;;12.63;;
71366;SDS011;60030;52.274;8.040;2023-05-07T08:25:07;18.93;;;13.50;;
71366;SDS011;60030;52.274;8.040;2023-05-07T08:27:35;18.67;;;12.77;;
71366;SDS011;60030;52.274;8.040;2023-05-07T08:30:03;17.93;;;12.63;;
71366;SDS011;60030;52.274;8.040;2023-05-07T08:32:31;18.43;;;13.83;;
71366;SDS011;60030;52.274;8.040;2023-05-07T08:34:59;17.80;;;12.50;;
71366;SDS011;60030;52.274;8.040;2023-05-07T08:37:27;18.40;;;12.73;;
71366;SDS011;60030;52.274;8.040;2023-05-07T08:39:56;17.00;;;12.10;;
71366;SDS011;60030;52.274;8.040;2023-05-07T08:42:27;19.03;;;12.90;;
71366;SDS011;60030;52.274;8.040;2023-05-07T08:44:57;19.30;;;13.47;;
71366;SDS011;60030;52.274;8.040;2023-05-07T08:47:29;18.67;;;12.13;;
71366;SDS011;60030;52.274;8.040;2023-05-07T08:50:02;18.90;;;12.97;;
71366;SDS011;60030;52.274;8.040;2023-05-07T08:52:32;20.87;;;12.90;;
71366;SDS011;60030;52.274;8.040;2023-05-07T08:55:01;18.67;;;12.93;;
71366;SDS011;60030;52.274;8.040;2023-05-07T08:57:30;17.03;;;12.00;;
71366;SDS011;60030;52.274;8.040;2023-05-07T08:59:58;17.00;;;12.47;;
71366;SDS011;60030;52.274;8.040;2023-05-07T09:02:25;16.67;;;11.70;;
71366;SDS011;60030;52.274;8.040;2023-05-07T09:04:54;14.27;;;10.97;;
71366;SDS011;60030;52.274;8.040;2023-05-07T09:07:21;15.83;;;11.50;;
71366;SDS011;60030;52.274;8.040;2023-05-07T09:09:50;17.60;;;11.73;;
71366;SDS011;60030;52.274;8.040;2023-05-07T09:12:20;15.67;;;11.53;;
71366;SDS011;60030;52.274;8.040;2023-05-07T09:14:48;21.63;;;14.53;;
71366;SDS011;60030;52.274;8.040;2023-05-07T09:17:17;15.17;;;11.20;;
71366;SDS011;60030;52.274;8.040;2023-05-07T09:19:44;19.63;;;11.97;;
71366;SDS011;60030;52.274;8.040;2023-05-07T09:22:14;16.83;;;12.00;;
71366;SDS011;60030;52.274;8.040;2023-05-07T09:24:57;16.03;;;11.63;;
71366;SDS011;60030;52.274;8.040;2023-05-07T09:27:28;16.03;;;11.30;;
71366;SDS011;60030;52.274;8.040;2023-05-07T09:29:58;14.83;;;10.63;;
71366;SDS011;60030;52.274;8.040;2023-05-07T09:32:25;15.63;;;10.80;;
71366;SDS011;60030;52.274;8.040;2023-05-07T09:34:54;16.17;;;11.10;;
71366;SDS011;60030;52.274;8.040;2023-05-07T09:37:23;70.47;;;53.17;;
71366;SDS011;60030;52.274;8.040;2023-05-07T09:39:53;35.43;;;27.83;;
71366;SDS011;60030;52.274;8.040;2023-05-07T09:42:23;17.73;;;13.30;;
71366;SDS011;60030;52.274;8.040;2023-05-07T09:44:54;17.63;;;11.70;;
71366;SDS011;60030;52.274;8.040;2023-05-07T09:47:25;13.73;;;10.50;;
71366;SDS011;60030;52.274;8.040;2023-05-07T09:49:58;14.40;;;10.70;;
71366;SDS011;60030;52.274;8.040;2023-05-07T09:52:29;15.17;;;11.57;;
71366;SDS011;60030;52.274;8.040;2023-05-07T09:55:01;45.33;;;34.63;;
71366;SDS011;60030;52.274;8.040;2023-05-07T09:57:31;60.60;;;42.63;;
71366;SDS011;60030;52.274;8.040;2023-05-07T10:00:06;17.17;;;13.07;;
71366;SDS011;60030;52.274;8.040;2023-05-07T10:02:46;14.85;;;10.65;;
71366;SDS011;60030;52.274;8.040;2023-05-07T10:05:18;14.45;;;10.05;;
71366;SDS011;60030;52.274;8.040;2023-05-07T10:07:47;14.38;;;10.13;;
71366;SDS011;60030;52.274;8.040;2023-05-07T10:10:15;16.87;;;11.70;;
71366;SDS011;60030;52.274;8.040;2023-05-07T10:12:46;14.20;;;11.10;;
71366;SDS011;60030;52.274;8.040;2023-05-07T10:15:22;12.73;;;10.35;;
71366;SDS011;60030;52.274;8.040;2023-05-07T10:17:53;12.48;;;9.55;;
71366;SDS011;60030;52.274;8.040;2023-05-07T10:20:21;12.60;;;10.20;;
71366;SDS011;60030;52.274;8.040;2023-05-07T10:22:50;12.73;;;9.50;;
71366;SDS011;60030;52.274;8.040;2023-05-07T10:25:28;12.48;;;9.13;;
71366;SDS011;60030;52.274;8.040;2023-05-07T10:28:01;11.45;;;8.88;;
71366;SDS011;60030;52.274;8.040;2023-05-07T10:30:37;14.38;;;8.95;;
71366;SDS011;60030;52.274;8.040;2023-05-07T10:33:15;11.98;;;9.18;;
71366;SDS011;60030;52.274;8.040;2023-05-07T10:35:46;11.38;;;9.20;;
71366;SDS011;60030;52.274;8.040;2023-05-07T10:38:15;11.95;;;9.38;;
71366;SDS011;60030;52.274;8.040;2023-05-07T10:40:45;13.18;;;9.20;;
71366;SDS011;60030;52.274;8.040;2023-05-07T10:43:12;12.20;;;9.13;;
71366;SDS011;60030;52.274;8.040;2023-05-07T10:46:11;10.63;;;8.15;;
71366;SDS011;60030;52.274;8.040;2023-05-07T10:49:07;10.65;;;8.40;;
71366;SDS011;60030;52.274;8.040;2023-05-07T10:51:45;14.93;;;7.70;;
71366;SDS011;60030;52.274;8.040;2023-05-07T10:54:33;9.88;;;7.72;;
71366;SDS011;60030;52.274;8.040;2023-05-07T11:03:18;10.90;;;8.65;;
71366;SDS011;60030;52.274;8.040;2023-05-07T11:06:09;9.07;;;7.50;;
71366;SDS011;60030;52.274;8.040;2023-05-07T11:08:52;8.50;;;7.63;;
71366;SDS011;60030;52.274;8.040;2023-05-07T11:14:43;8.98;;;7.68;;
71366;SDS011;60030;52.274;8.040;2023-05-07T11:17:16;8.52;;;6.75;;
71366;SDS011;60030;52.274;8.040;2023-05-07T11:19:52;8.73;;;7.57;;
71366;SDS011;60030;52.274;8.040;2023-05-07T11:22:37;8.63;;;6.97;;
71366;SDS011;60030;52.274;8.040;2023-05-07T11:25:19;9.00;;;7.78;;
71366;SDS011;60030;52.274;8.040;2023-05-07T11:27:53;9.50;;;7.07;;
71366;SDS011;60030;52.274;8.040;2023-05-07T11:30:24;7.80;;;6.53;;
71366;SDS011;60030;52.274;8.040;2023-05-07T11:32:51;8.32;;;6.95;;
71366;SDS011;60030;52.274;8.040;2023-05-07T11:35:22;7.50;;;6.53;;
71366;SDS011;60030;52.274;8.040;2023-05-07T11:37:51;9.23;;;7.07;;
71366;SDS011;60030;52.274;8.040;2023-05-07T11:40:27;8.95;;;7.18;;
71366;SDS011;60030;52.274;8.040;2023-05-07T11:42:54;8.40;;;7.13;;
71366;SDS011;60030;52.274;8.040;2023-05-07T11:45:22;8.48;;;7.05;;
71366;SDS011;60030;52.274;8.040;2023-05-07T11:47:51;9.25;;;7.38;;
71366;SDS011;60030;52.274;8.040;2023-05-07T11:50:20;9.25;;;6.88;;
71366;SDS011;60030;52.274;8.040;2023-05-07T11:52:50;10.38;;;7.10;;
71366;SDS011;60030;52.274;8.040;2023-05-07T11:55:18;8.25;;;7.28;;
71366;SDS011;60030;52.274;8.040;2023-05-07T11:57:47;8.52;;;6.40;;
71366;SDS011;60030;52.274;8.040;2023-05-07T12:00:15;9.63;;;7.60;;
71366;SDS011;60030;52.274;8.040;2023-05-07T12:02:43;7.97;;;6.55;;
71366;SDS011;60030;52.274;8.040;2023-05-07T12:05:12;9.13;;;7.32;;
71366;SDS011;60030;52.274;8.040;2023-05-07T12:07:42;9.07;;;6.57;;
71366;SDS011;60030;52.274;8.040;2023-05-07T12:10:10;7.32;;;6.32;;
71366;SDS011;60030;52.274;8.040;2023-05-07T12:12:39;8.02;;;7.07;;
71366;SDS011;60030;52.274;8.040;2023-05-07T12:15:08;10.38;;;7.70;;
71366;SDS011;60030;52.274;8.040;2023-05-07T12:17:36;9.70;;;6.78;;
71366;SDS011;60030;52.274;8.040;2023-05-07T12:20:04;10.15;;;7.55;;
71366;SDS011;60030;52.274;8.040;2023-05-07T12:22:33;9.10;;;7.50;;
71366;SDS011;60030;52.274;8.040;2023-05-07T12:25:02;8.27;;;7.07;;
71366;SDS011;60030;52.274;8.040;2023-05-07T12:27:29;9.43;;;6.88;;
71366;SDS011;60030;52.274;8.040;2023-05-07T12:29:57;8.07;;;6.93;;
71366;SDS011;60030;52.274;8.040;2023-05-07T12:32:25;7.28;;;6.40;;
71366;SDS011;60030;52.274;8.040;2023-05-07T12:34:52;8.48;;;6.68;;
71366;SDS011;60030;52.274;8.040;2023-05-07T12:37:22;8.80;;;6.03;;
71366;SDS011;60030;52.274;8.040;2023-05-07T12:40:04;6.95;;;5.55;;
71366;SDS011;60030;52.274;8.040;2023-05-07T12:42:33;6.78;;;5.78;;
71366;SDS011;60030;52.274;8.040;2023-05-07T12:45:07;6.82;;;6.03;;
71366;SDS011;60030;52.274;8.040;2023-05-07T12:47:35;6.43;;;5.70;;
71366;SDS011;60030;52.274;8.040;2023-05-07T12:50:04;8.75;;;6.10;;
71366;SDS011;60030;52.274;8.040;2023-05-07T12:52:33;6.70;;;5.68;;
71366;SDS011;60030;52.274;8.040;2023-05-07T12:55:05;6.75;;;6.03;;
71366;SDS011;60030;52.274;8.040;2023-05-07T12:57:37;6.78;;;5.97;;
71366;SDS011;60030;52.274;8.040;2023-05-07T13:00:06;7.32;;;6.53;;
71366;SDS011;60030;52.274;8.040;2023-05-07T13:02:37;5.93;;;4.93;;
71366;SDS011;60030;52.274;8.040;2023-05-07T13:05:06;7.10;;;6.05;;
71366;SDS011;60030;52.274;8.040;2023-05-07T13:07:34;7.15;;;5.72;;
71366;SDS011;60030;52.274;8.040;2023-05-07T13:10:02;6.25;;;5.18;;
71366;SDS011;60030;52.274;8.040;2023-05-07T13:12:31;6.75;;;5.90;;
71366;SDS011;60030;52.274;8.040;2023-05-07T13:14:58;7.97;;;5.57;;
71366;SDS011;60030;52.274;8.040;2023-05-07T13:17:26;8.00;;;6.53;;
71366;SDS011;60030;52.274;8.040;2023-05-07T13:19:56;6.13;;;5.53;;
71366;SDS011;60030;52.274;8.040;2023-05-07T13:22:24;6.13;;;4.82;;
71366;SDS011;60030;52.274;8.040;2023-05-07T13:24:52;6.80;;;5.47;;
71366;SDS011;60030;52.274;8.040;2023-05-07T13:27:20;6.82;;;5.40;;
71366;SDS011;60030;52.274;8.040;2023-05-07T13:29:49;5.10;;;4.05;;
71366;SDS011;60030;52.274;8.040;2023-05-07T13:32:17;5.32;;;4.55;;
71366;SDS011;60030;52.274;8.040;2023-05-07T13:34:45;6.13;;;4.90;;
71366;SDS011;60030;52.274;8.040;2023-05-07T13:37:12;4.70;;;4.30;;
71366;SDS011;60030;52.274;8.040;2023-05-07T13:39:40;6.75;;;4.65;;
71366;SDS011;60030;52.274;8.040;2023-05-07T13:42:07;4.60;;;4.13;;
71366;SDS011;60030;52.274;8.040;2023-05-07T13:44:35;5.82;;;5.32;;
71366;SDS011;60030;52.274;8.040;2023-05-07T13:47:04;5.90;;;4.97;;
71366;SDS011;60030;52.274;8.040;2023-05-07T13:49:31;5.72;;;5.05;;
71366;SDS011;60030;52.274;8.040;2023-05-07T13:51:58;5.28;;;4.32;;
71366;SDS011;60030;52.274;8.040;2023-05-07T13:54:26;4.60;;;4.10;;
71366;SDS011;60030;52.274;8.040;2023-05-07T13:56:53;4.95;;;4.28;;
71366;SDS011;60030;52.274;8.040;2023-05-07T13:59:20;4.57;;;4.15;;
71366;SDS011;60030;52.274;8.040;2023-05-07T14:01:49;5.30;;;4.80;;
71366;SDS011;60030;52.274;8.040;2023-05-07T14:04:18;5.00;;;4.30;;
71366;SDS011;60030;52.274;8.040;2023-05-07T14:06:45;4.82;;;4.32;;
71366;SDS011;60030;52.274;8.040;2023-05-07T14:09:13;7.25;;;4.20;;
71366;SDS011;60030;52.274;8.040;2023-05-07T14:11:40;5.97;;;4.22;;
71366;SDS011;60030;52.274;8.040;2023-05-07T14:14:08;4.60;;;4.10;;
71366;SDS011;60030;52.274;8.040;2023-05-07T14:16:37;5.07;;;4.57;;
71366;SDS011;60030;52.274;8.040;2023-05-07T14:19:06;6.57;;;4.47;;
71366;SDS011;60030;52.274;8.040;2023-05-07T14:21:36;5.10;;;4.40;;
71366;SDS011;60030;52.274;8.040;2023-05-07T14:24:05;5.30;;;4.45;;
71366;SDS011;60030;52.274;8.040;2023-05-07T14:26:34;4.43;;;4.07;;
71366;SDS011;60030;52.274;8.040;2023-05-07T14:29:02;5.03;;;4.47;;
71366;SDS011;60030;52.274;8.040;2023-05-07T14:31:29;6.40;;;5.00;;
71366;SDS011;60030;52.274;8.040;2023-05-07T14:33:57;4.88;;;4.43;;
71366;SDS011;60030;52.274;8.040;2023-05-07T14:36:24;5.95;;;5.43;;
71366;SDS011;60030;52.274;8.040;2023-05-07T14:38:55;5.18;;;4.65;;
71366;SDS011;60030;52.274;8.040;2023-05-07T14:41:26;5.13;;;4.63;;
71366;SDS011;60030;52.274;8.040;2023-05-07T14:43:53;5.47;;;4.97;;
71366;SDS011;60030;52.274;8.040;2023-05-07T14:46:22;5.20;;;4.70;;
71366;SDS011;60030;52.274;8.040;2023-05-07T14:48:50;4.75;;;4.25;;
71366;SDS011;60030;52.274;8.040;2023-05-07T14:51:18;5.95;;;4.82;;